createdAt,value
2024-02-12T00:00:23.826Z,8.20
2024-02-12T00:02:52.189Z,8.20
2024-02-12T00:05:22.490Z,8.20
2024-02-12T00:07:50.841Z,8.20
2024-02-12T00:10:19.808Z,8.20
2024-02-12T00:12:50.638Z,8.20
2024-02-12T00:15:32.685Z,8.20
2024-02-12T00:18:03.285Z,8.20
2024-02-12T00:20:38.342Z,8.20
2024-02-12T00:23:09.083Z,8.20
2024-02-12T00:25:37.189Z,8.20
2024-02-12T00:28:08.925Z,8.20
2024-02-12T00:30:39.843Z,8.20
2024-02-12T00:33:08.965Z,8.20
2024-02-12T00:35:40.110Z,8.20
2024-02-12T00:38:08.631Z,8.20
2024-02-12T00:40:37.254Z,8.20
2024-02-12T00:43:13.480Z,8.20
2024-02-12T00:45:45.656Z,8.20
2024-02-12T00:48:13.816Z,8.20
2024-02-12T00:50:42.069Z,8.20
2024-02-12T00:53:11.180Z,8.20
2024-02-12T00:55:40.495Z,8.10
2024-02-12T00:58:10.915Z,8.20
2024-02-12T01:00:39.129Z,8.20
2024-02-12T01:03:07.799Z,8.10
2024-02-12T01:05:36.368Z,8.10
2024-02-12T01:08:07.401Z,8.10
2024-02-12T01:10:35.894Z,8.10
2024-02-12T01:13:04.312Z,8.10
2024-02-12T01:15:33.899Z,8.10
2024-02-12T01:18:10.209Z,8.10
2024-02-12T01:20:40.410Z,8.10
2024-02-12T01:23:09.254Z,8.10
2024-02-12T01:25:37.755Z,8.00
2024-02-12T01:28:06.770Z,8.00
2024-02-12T01:30:37.428Z,8.00
2024-02-12T01:33:07.860Z,8.00
2024-02-12T01:35:36.552Z,8.00
2024-02-12T01:38:10.480Z,8.00
2024-02-12T01:40:38.904Z,8.00
2024-02-12T01:43:07.153Z,8.00
2024-02-12T01:45:39.045Z,8.00
2024-02-12T01:48:10.751Z,8.00
2024-02-12T01:50:39.859Z,8.00
2024-02-12T01:53:09.060Z,7.90
2024-02-12T01:55:37.356Z,8.00
2024-02-12T01:58:06.212Z,7.90
2024-02-12T02:00:34.429Z,7.90
2024-02-12T02:03:06.234Z,8.00
2024-02-12T02:05:34.575Z,7.90
2024-02-12T02:08:02.910Z,7.90
2024-02-12T02:10:31.380Z,7.90
2024-02-12T02:13:00.918Z,7.90
2024-02-12T02:15:29.405Z,7.90
2024-02-12T02:17:58.076Z,7.90
2024-02-12T02:20:28.452Z,7.90
2024-02-12T02:22:57.272Z,7.90
2024-02-12T02:25:26.807Z,7.90
2024-02-12T02:27:55.217Z,7.90
2024-02-12T02:30:23.488Z,7.80
2024-02-12T02:32:52.617Z,7.80
2024-02-12T02:35:21.186Z,7.80
2024-02-12T02:37:49.512Z,7.80
2024-02-12T02:40:17.826Z,7.80
2024-02-12T02:42:48.099Z,7.80
2024-02-12T02:45:16.506Z,7.80
2024-02-12T02:47:45.235Z,7.80
2024-02-12T02:50:13.601Z,7.80
2024-02-12T02:52:42.105Z,7.80
2024-02-12T02:55:13.024Z,7.80
2024-02-12T02:57:41.507Z,7.80
2024-02-12T03:00:12.720Z,7.80
2024-02-12T03:02:42.975Z,7.80
2024-02-12T03:05:15.418Z,7.80
2024-02-12T03:07:44.607Z,7.80
2024-02-12T03:10:13.424Z,7.80
2024-02-12T03:12:42.800Z,7.80
2024-02-12T03:15:16.899Z,7.80
2024-02-12T03:17:46.934Z,7.80
2024-02-12T03:20:17.221Z,7.80
2024-02-12T03:22:45.549Z,7.80
2024-02-12T03:25:14.270Z,7.80
2024-02-12T03:27:43.278Z,7.80
2024-02-12T03:30:13.751Z,7.70
2024-02-12T03:32:42.064Z,7.70
2024-02-12T03:35:11.515Z,7.70
2024-02-12T03:37:42.340Z,7.70
2024-02-12T03:40:14.387Z,7.70
2024-02-12T03:42:42.822Z,7.70
2024-02-12T03:45:17.000Z,7.70
2024-02-12T03:47:46.227Z,7.70
2024-02-12T03:50:34.900Z,7.70
2024-02-12T03:53:22.422Z,7.70
2024-02-12T03:56:08.511Z,7.70
2024-02-12T03:58:54.520Z,7.70
2024-02-12T04:01:24.126Z,7.70
2024-02-12T04:03:52.289Z,7.70
2024-02-12T04:06:20.727Z,7.60
2024-02-12T04:08:51.008Z,7.70
2024-02-12T04:11:19.214Z,7.60
2024-02-12T04:13:48.248Z,7.60
2024-02-12T04:16:17.544Z,7.60
2024-02-12T04:18:47.852Z,7.60
2024-02-12T04:21:18.077Z,7.60
2024-02-12T04:23:49.871Z,7.70
2024-02-12T04:26:18.982Z,7.60
2024-02-12T04:28:50.255Z,7.60
2024-02-12T04:31:18.610Z,7.60
2024-02-12T04:33:48.846Z,7.60
2024-02-12T04:36:17.775Z,7.70
2024-02-12T04:38:46.232Z,7.60
2024-02-12T04:41:15.249Z,7.60
2024-02-12T04:43:43.734Z,7.60
2024-02-12T04:46:12.008Z,7.60
2024-02-12T04:48:41.803Z,7.60
2024-02-12T04:51:12.294Z,7.60
2024-02-12T04:53:41.409Z,7.60
2024-02-12T04:56:09.901Z,7.60
2024-02-12T04:58:39.288Z,7.60
2024-02-12T05:01:09.216Z,7.60
2024-02-12T05:03:38.572Z,7.60
2024-02-12T05:06:07.595Z,7.60
2024-02-12T05:08:37.527Z,7.60
2024-02-12T05:11:06.240Z,7.60
2024-02-12T05:13:34.698Z,7.60
2024-02-12T05:16:03.775Z,7.50
2024-02-12T05:18:48.845Z,7.60
2024-02-12T05:21:34.667Z,7.50
2024-02-12T05:24:04.475Z,7.60
2024-02-12T05:26:33.026Z,7.60
2024-02-12T05:29:01.587Z,7.60
2024-02-12T05:31:30.012Z,7.60
2024-02-12T05:33:59.352Z,7.60
2024-02-12T05:36:28.315Z,7.60
2024-02-12T05:38:56.664Z,7.50
2024-02-12T05:41:26.502Z,7.60
2024-02-12T05:43:55.083Z,7.50
2024-02-12T05:46:23.292Z,7.50
2024-02-12T05:48:51.483Z,7.60
2024-02-12T05:51:20.500Z,7.50
2024-02-12T05:53:49.605Z,7.50
2024-02-12T05:56:17.826Z,7.50
2024-02-12T05:58:47.966Z,7.50
2024-02-12T06:01:16.293Z,7.50
2024-02-12T06:03:44.819Z,7.50
2024-02-12T06:06:13.897Z,7.50
2024-02-12T06:08:42.612Z,7.50
2024-02-12T06:11:11.101Z,7.50
2024-02-12T06:13:39.456Z,7.50
2024-02-12T06:16:09.155Z,7.50
2024-02-12T06:18:37.462Z,7.50
2024-02-12T06:21:09.660Z,7.50
2024-02-12T06:23:38.506Z,7.50
2024-02-12T06:26:07.157Z,7.50
2024-02-12T06:28:35.861Z,7.50
2024-02-12T06:31:04.055Z,7.50
2024-02-12T06:33:33.842Z,7.50
2024-02-12T06:36:03.198Z,7.50
2024-02-12T06:38:31.656Z,7.50
2024-02-12T06:41:02.108Z,7.50
2024-02-12T06:43:30.390Z,7.50
2024-02-12T06:45:59.219Z,7.50
2024-02-12T06:48:29.053Z,7.60
2024-02-12T06:51:01.660Z,7.50
2024-02-12T06:53:33.508Z,7.60
2024-02-12T06:56:09.655Z,7.60
2024-02-12T06:58:38.697Z,7.60
2024-02-12T07:01:06.928Z,7.60
2024-02-12T07:03:35.144Z,7.60
2024-02-12T07:06:05.109Z,7.70
2024-02-12T07:08:33.738Z,7.70
2024-02-12T07:11:02.283Z,7.70
2024-02-12T07:13:31.154Z,7.80
2024-02-12T07:15:59.455Z,7.80
2024-02-12T07:18:27.549Z,7.80
2024-02-12T07:20:56.645Z,7.80
2024-02-12T07:23:26.286Z,7.90
2024-02-12T07:25:54.736Z,7.90
2024-02-12T07:28:23.351Z,8.00
2024-02-12T07:30:51.551Z,8.00
2024-02-12T07:33:20.783Z,8.10
2024-02-12T07:35:49.176Z,8.10
2024-02-12T07:38:17.483Z,8.20
2024-02-12T07:40:47.326Z,8.20
2024-02-12T07:43:15.636Z,8.20
2024-02-12T07:45:44.625Z,8.30
2024-02-12T07:48:13.620Z,8.30
2024-02-12T07:50:41.932Z,8.20
2024-02-12T07:53:10.287Z,8.30
2024-02-12T07:55:38.388Z,8.30
2024-02-12T07:58:07.939Z,8.30
2024-02-12T08:00:36.190Z,8.30
2024-02-12T08:03:05.321Z,8.30
2024-02-12T08:05:38.126Z,8.40
2024-02-12T08:08:08.406Z,8.40
2024-02-12T08:10:38.299Z,8.40
2024-02-12T08:13:12.989Z,8.40
2024-02-12T08:15:41.704Z,8.50
2024-02-12T08:18:13.933Z,8.50
2024-02-12T08:20:42.448Z,8.60
2024-02-12T08:23:10.756Z,8.60
2024-02-12T08:25:40.088Z,8.60
2024-02-12T08:28:09.228Z,8.70
2024-02-12T08:30:38.924Z,8.70
2024-02-12T08:33:07.302Z,8.70
2024-02-12T08:35:35.572Z,8.80
2024-02-12T08:38:04.514Z,8.70
2024-02-12T08:40:32.832Z,8.80
2024-02-12T08:43:00.964Z,8.80
2024-02-12T08:45:31.545Z,8.80
2024-02-12T08:48:01.299Z,8.80
2024-02-12T08:50:29.589Z,8.90
2024-02-12T08:52:58.583Z,8.90
2024-02-12T08:55:28.236Z,8.90
2024-02-12T08:57:56.794Z,8.90
2024-02-12T09:00:25.244Z,8.90
2024-02-12T09:02:53.516Z,8.90
2024-02-12T09:05:23.137Z,9.00
2024-02-12T09:07:51.372Z,9.00
2024-02-12T09:10:22.701Z,9.00
2024-02-12T09:12:53.800Z,9.00
2024-02-12T09:15:23.439Z,9.10
2024-02-12T09:17:52.244Z,9.10
2024-02-12T09:20:22.362Z,9.10
2024-02-12T09:22:50.620Z,9.10
2024-02-12T09:25:18.971Z,9.20
2024-02-12T09:27:48.742Z,9.20
2024-02-12T09:30:19.056Z,9.20
2024-02-12T09:32:48.541Z,9.30
2024-02-12T09:35:20.143Z,9.20
2024-02-12T09:37:50.974Z,9.30
2024-02-12T09:40:23.105Z,9.30
2024-02-12T09:42:55.400Z,9.30
2024-02-12T09:45:26.108Z,9.30
2024-02-12T09:47:56.346Z,9.40
2024-02-12T09:50:25.374Z,9.40
2024-02-12T09:52:57.928Z,9.40
2024-02-12T09:55:27.533Z,9.40
2024-02-12T09:57:55.799Z,9.50
2024-02-12T10:00:24.398Z,9.50
2024-02-12T10:02:55.085Z,9.50
2024-02-12T10:05:24.884Z,9.50
2024-02-12T10:07:54.658Z,9.60
2024-02-12T10:10:22.707Z,9.50
2024-02-12T10:12:54.488Z,9.60
2024-02-12T10:15:24.700Z,9.60
2024-02-12T10:17:56.809Z,9.60
2024-02-12T10:20:26.075Z,9.60
2024-02-12T10:22:58.624Z,9.60
2024-02-12T10:25:27.133Z,9.70
2024-02-12T10:27:56.901Z,9.70
2024-02-12T10:30:25.161Z,9.70
2024-02-12T10:32:53.717Z,9.70
2024-02-12T10:35:29.669Z,9.70
2024-02-12T10:38:06.000Z,9.70
2024-02-12T10:40:37.108Z,9.70
2024-02-12T10:43:06.587Z,9.80
2024-02-12T10:45:35.947Z,9.80
2024-02-12T10:48:06.003Z,9.90
2024-02-12T10:50:38.551Z,9.90
2024-02-12T10:53:09.836Z,10.00
2024-02-12T10:55:40.208Z,10.10
2024-02-12T10:58:09.036Z,10.10
2024-02-12T11:00:45.616Z,10.10
2024-02-12T11:03:17.626Z,10.10
2024-02-12T11:05:46.202Z,10.20
2024-02-12T11:08:20.172Z,10.20
2024-02-12T11:10:51.231Z,10.30
2024-02-12T11:13:20.527Z,10.30
2024-02-12T11:15:51.868Z,10.30
2024-02-12T11:18:24.178Z,10.40
2024-02-12T11:20:53.288Z,10.40
2024-02-12T11:23:28.166Z,10.40
2024-02-12T11:25:58.056Z,10.40
2024-02-12T11:28:29.923Z,10.30
2024-02-12T11:31:00.650Z,10.40
2024-02-12T11:33:29.201Z,10.40
2024-02-12T11:36:11.583Z,10.50
2024-02-12T11:38:51.842Z,10.50
2024-02-12T11:41:20.249Z,10.60
2024-02-12T11:43:49.513Z,10.60
2024-02-12T11:46:19.505Z,10.70
2024-02-12T11:48:48.455Z,10.70
2024-02-12T11:51:22.153Z,10.80
2024-02-12T11:53:54.044Z,10.80
2024-02-12T11:56:25.162Z,10.80
2024-02-12T11:58:56.631Z,10.90
2024-02-12T12:01:26.577Z,10.90
2024-02-12T12:03:55.970Z,10.90
2024-02-12T12:06:24.538Z,10.90
2024-02-12T12:08:54.822Z,10.90
2024-02-12T12:11:24.302Z,10.90
2024-02-12T12:13:59.599Z,10.90
2024-02-12T12:16:29.151Z,10.90
2024-02-12T12:18:57.562Z,10.90
2024-02-12T12:21:25.798Z,11.00
2024-02-12T12:23:55.804Z,11.00
2024-02-12T12:26:24.172Z,11.00
2024-02-12T12:28:52.588Z,11.00
2024-02-12T12:31:21.616Z,11.00
2024-02-12T12:33:51.347Z,11.00
2024-02-12T12:36:20.772Z,11.00
2024-02-12T12:38:48.976Z,11.00
2024-02-12T12:41:20.398Z,11.00
2024-02-12T12:43:51.611Z,11.10
2024-02-12T12:46:25.508Z,11.10
2024-02-12T12:48:54.532Z,11.10
2024-02-12T12:51:22.737Z,11.10
2024-02-12T12:53:50.922Z,11.10
2024-02-12T12:56:21.638Z,11.10
2024-02-12T12:58:50.628Z,11.20
2024-02-12T13:01:21.316Z,11.20
2024-02-12T13:03:50.743Z,11.30
2024-02-12T13:06:19.353Z,11.30
2024-02-12T13:08:47.464Z,11.40
2024-02-12T13:11:15.696Z,11.40
2024-02-12T13:13:45.888Z,11.40
2024-02-12T13:16:13.969Z,11.40
2024-02-12T13:18:42.283Z,11.40
2024-02-12T13:21:10.557Z,11.40
2024-02-12T13:23:38.756Z,11.30
2024-02-12T13:26:13.211Z,11.40
2024-02-12T13:28:42.249Z,11.40
2024-02-12T13:31:14.599Z,11.50
2024-02-12T13:33:46.833Z,11.50
2024-02-12T13:36:16.428Z,11.50
2024-02-12T13:38:44.750Z,11.40
2024-02-12T13:41:16.246Z,11.40
2024-02-12T13:43:45.841Z,11.40
2024-02-12T13:46:15.447Z,11.40
2024-02-12T13:48:44.425Z,11.30
2024-02-12T13:51:12.610Z,11.30
2024-02-12T13:53:41.289Z,11.30
2024-02-12T13:56:09.669Z,11.30
2024-02-12T13:58:37.804Z,11.20
2024-02-12T14:01:16.627Z,11.10
2024-02-12T14:03:56.873Z,11.10
2024-02-12T14:06:25.194Z,11.10
2024-02-12T14:08:53.493Z,11.10
2024-02-12T14:11:21.969Z,11.10
2024-02-12T14:13:52.593Z,11.10
2024-02-12T14:16:20.638Z,11.00
2024-02-12T14:18:50.866Z,11.00
2024-02-12T14:21:22.484Z,11.00
2024-02-12T14:23:50.745Z,11.00
2024-02-12T14:26:20.314Z,10.90
2024-02-12T14:28:48.519Z,10.90
2024-02-12T14:31:18.242Z,10.90
2024-02-12T14:33:49.409Z,10.90
2024-02-12T14:36:22.651Z,10.80
2024-02-12T14:38:50.955Z,10.80
2024-02-12T14:41:19.390Z,10.80
2024-02-12T14:43:47.823Z,10.70
2024-02-12T14:46:16.059Z,10.70
2024-02-12T14:48:45.106Z,10.70
2024-02-12T14:51:14.227Z,10.60
2024-02-12T14:53:44.015Z,10.60
2024-02-12T14:56:13.500Z,10.50
2024-02-12T14:58:41.866Z,10.50
2024-02-12T15:01:14.023Z,10.50
2024-02-12T15:03:43.563Z,10.40
2024-02-12T15:06:12.597Z,10.40
2024-02-12T15:08:45.880Z,10.40
2024-02-12T15:11:14.352Z,10.40
2024-02-12T15:13:43.890Z,10.40
2024-02-12T15:16:14.142Z,10.30
2024-02-12T15:18:42.958Z,10.30
2024-02-12T15:21:11.176Z,10.30
2024-02-12T15:23:40.382Z,10.20
2024-02-12T15:26:12.873Z,10.20
2024-02-12T15:28:41.313Z,10.20
2024-02-12T15:31:09.497Z,10.20
2024-02-12T15:33:37.762Z,10.20
2024-02-12T15:36:06.637Z,10.10
2024-02-12T15:38:35.348Z,10.10
2024-02-12T15:41:04.520Z,10.10
2024-02-12T15:43:34.140Z,10.00
2024-02-12T15:46:02.555Z,10.00
2024-02-12T15:48:31.006Z,10.00
2024-02-12T15:51:01.243Z,9.90
2024-02-12T15:53:29.632Z,9.90
2024-02-12T15:55:58.879Z,9.90
2024-02-12T15:58:28.281Z,9.90
2024-02-12T16:00:58.988Z,9.80
2024-02-12T16:03:27.357Z,9.80
2024-02-12T16:06:12.322Z,9.80
2024-02-12T16:08:42.563Z,9.80
2024-02-12T16:11:15.741Z,9.80
2024-02-12T16:13:47.102Z,9.70
2024-02-12T16:16:19.325Z,9.70
2024-02-12T16:18:49.503Z,9.70
2024-02-12T16:21:17.855Z,9.60
2024-02-12T16:23:47.378Z,9.60
2024-02-12T16:26:16.752Z,9.60
2024-02-12T16:28:46.359Z,9.50
2024-02-12T16:31:16.001Z,9.50
2024-02-12T16:33:44.446Z,9.50
2024-02-12T16:36:14.513Z,9.50
2024-02-12T16:38:42.773Z,9.50
2024-02-12T16:41:10.990Z,9.40
2024-02-12T16:43:39.749Z,9.40
2024-02-12T16:46:08.770Z,9.40
2024-02-12T16:48:41.512Z,9.40
2024-02-12T16:51:10.178Z,9.30
2024-02-12T16:53:38.551Z,9.30
2024-02-12T16:56:07.571Z,9.30
2024-02-12T16:58:35.671Z,9.30
2024-02-12T17:01:04.140Z,9.30
2024-02-12T17:03:32.929Z,9.20
2024-02-12T17:06:03.069Z,9.20
2024-02-12T17:08:32.429Z,9.20
2024-02-12T17:11:02.030Z,9.10
2024-02-12T17:13:30.828Z,9.20
2024-02-12T17:15:59.232Z,9.10
2024-02-12T17:18:27.405Z,9.10
2024-02-12T17:20:56.846Z,9.10
2024-02-12T17:23:26.746Z,9.00
2024-02-12T17:25:54.984Z,9.00
2024-02-12T17:28:23.785Z,9.00
2024-02-12T17:30:52.966Z,8.90
2024-02-12T17:33:21.463Z,8.90
2024-02-12T17:35:52.981Z,8.90
2024-02-12T17:38:21.179Z,8.90
2024-02-12T17:40:50.740Z,8.80
2024-02-12T17:43:20.077Z,8.80
2024-02-12T17:45:49.032Z,8.80
2024-02-12T17:48:19.336Z,8.80
2024-02-12T17:50:47.698Z,8.70
2024-02-12T17:53:19.702Z,8.70
2024-02-12T17:55:47.882Z,8.70
2024-02-12T17:58:17.442Z,8.70
2024-02-12T18:00:46.016Z,8.70
2024-02-12T18:03:14.319Z,8.70
2024-02-12T18:05:42.904Z,8.60
2024-02-12T18:08:11.435Z,8.60
2024-02-12T18:10:40.715Z,8.60
2024-02-12T18:13:09.829Z,8.50
2024-02-12T18:15:40.464Z,8.50
2024-02-12T18:18:09.266Z,8.50
2024-02-12T18:20:39.605Z,8.50
2024-02-12T18:23:07.974Z,8.50
2024-02-12T18:25:36.269Z,8.50
2024-02-12T18:28:06.746Z,8.40
2024-02-12T18:30:35.252Z,8.50
2024-02-12T18:33:06.104Z,8.50
2024-02-12T18:35:35.292Z,8.40
2024-02-12T18:38:05.626Z,8.40
2024-02-12T18:40:34.122Z,8.40
2024-02-12T18:43:02.990Z,8.30
2024-02-12T18:45:32.331Z,8.30
2024-02-12T18:48:01.571Z,8.30
2024-02-12T18:50:31.663Z,8.30
2024-02-12T18:53:00.779Z,8.30
2024-02-12T18:55:29.037Z,8.30
2024-02-12T18:58:00.516Z,8.30
2024-02-12T19:00:31.159Z,8.20
2024-02-12T19:02:59.358Z,8.20
2024-02-12T19:05:28.362Z,8.20
2024-02-12T19:07:57.991Z,8.20
2024-02-12T19:10:26.180Z,8.10
2024-02-12T19:12:54.236Z,8.10
2024-02-12T19:15:23.324Z,8.10
2024-02-12T19:17:51.714Z,8.10
2024-02-12T19:20:29.996Z,8.00
2024-02-12T19:23:17.882Z,8.00
2024-02-12T19:25:54.946Z,8.00
2024-02-12T19:28:23.395Z,8.00
2024-02-12T19:31:30.485Z,8.00
2024-02-12T19:33:58.931Z,7.90
2024-02-12T19:39:14.154Z,7.90
2024-02-12T19:41:43.380Z,7.90
2024-02-12T19:44:12.541Z,7.90
2024-02-12T19:46:45.031Z,7.80
2024-02-12T19:49:13.667Z,7.80
2024-02-12T19:51:41.976Z,7.80
2024-02-12T19:54:10.496Z,7.80
2024-02-12T19:56:40.020Z,7.80
2024-02-12T19:59:08.435Z,7.80
2024-02-12T20:01:40.143Z,7.70
2024-02-12T20:04:08.358Z,7.70
2024-02-12T20:06:36.705Z,7.70
2024-02-12T20:09:05.613Z,7.60
2024-02-12T20:11:34.535Z,7.60
2024-02-12T20:14:04.382Z,7.60
2024-02-12T20:16:33.876Z,7.50
2024-02-12T20:19:02.318Z,7.50
2024-02-12T20:21:31.481Z,7.40
2024-02-12T20:24:00.561Z,7.40
2024-02-12T20:26:30.982Z,7.30
2024-02-12T20:28:59.131Z,7.30
2024-02-12T20:31:28.777Z,7.30
2024-02-12T20:34:00.427Z,7.20
2024-02-12T20:36:28.806Z,7.20
2024-02-12T20:38:56.869Z,7.10
2024-02-12T20:41:25.373Z,7.10
2024-02-12T20:43:53.608Z,7.10
2024-02-12T20:46:22.321Z,7.00
2024-02-12T20:48:52.115Z,7.00
2024-02-12T20:51:20.284Z,7.00
2024-02-12T20:53:48.546Z,7.00
2024-02-12T20:56:17.041Z,6.90
2024-02-12T20:58:46.814Z,6.90
2024-02-12T21:01:15.984Z,6.90
2024-02-12T21:03:44.258Z,6.90
2024-02-12T21:06:14.063Z,6.80
2024-02-12T21:08:42.604Z,6.80
2024-02-12T21:11:10.807Z,6.80
2024-02-12T21:13:39.251Z,6.70
2024-02-12T21:16:10.176Z,6.70
2024-02-12T21:18:39.294Z,6.70
2024-02-12T21:21:09.794Z,6.70
2024-02-12T21:23:39.366Z,6.60
2024-02-12T21:26:08.396Z,6.60
2024-02-12T21:28:36.769Z,6.60
2024-02-12T21:31:05.744Z,6.60
2024-02-12T21:33:35.208Z,6.50
2024-02-12T21:36:04.397Z,6.50
2024-02-12T21:38:41.173Z,6.50
2024-02-12T21:41:37.394Z,6.40
2024-02-12T21:44:07.013Z,6.40
2024-02-12T21:46:35.517Z,6.40
2024-02-12T21:49:05.934Z,6.40
2024-02-12T21:51:35.939Z,6.30
2024-02-12T21:54:04.756Z,6.30
2024-02-12T21:56:34.558Z,6.30
2024-02-12T21:59:03.038Z,6.20
2024-02-12T22:01:31.774Z,6.20
2024-02-12T22:04:04.603Z,6.20
2024-02-12T22:06:32.978Z,6.20
2024-02-12T22:09:01.197Z,6.20
2024-02-12T22:11:35.253Z,6.20
2024-02-12T22:14:03.969Z,6.10
2024-02-12T22:16:33.096Z,6.20
2024-02-12T22:19:04.221Z,6.20
2024-02-12T22:21:38.316Z,6.20
2024-02-12T22:24:14.809Z,6.20
2024-02-12T22:26:44.634Z,6.20
2024-02-12T22:29:16.149Z,6.20
2024-02-12T22:31:47.607Z,6.10
2024-02-12T22:34:19.232Z,6.10
2024-02-12T22:36:52.134Z,6.10
2024-02-12T22:39:22.959Z,6.10
2024-02-12T22:41:52.925Z,6.10
2024-02-12T22:44:24.470Z,6.10
2024-02-12T22:47:00.639Z,6.10
2024-02-12T22:49:30.206Z,6.10
2024-02-12T22:51:58.447Z,6.00
2024-02-12T22:54:26.676Z,6.10
2024-02-12T22:56:56.244Z,6.10
2024-02-12T22:59:24.547Z,6.10
2024-02-12T23:01:52.948Z,6.00
2024-02-12T23:04:21.390Z,6.00
2024-02-12T23:06:49.554Z,6.10
2024-02-12T23:09:17.864Z,6.00
2024-02-12T23:11:48.279Z,6.00
2024-02-12T23:14:18.099Z,6.00
2024-02-12T23:16:49.072Z,6.00
2024-02-12T23:19:19.782Z,6.00
2024-02-12T23:21:48.167Z,6.00
2024-02-12T23:24:16.355Z,6.00
2024-02-12T23:26:53.143Z,5.90
2024-02-12T23:29:24.515Z,6.00
2024-02-12T23:31:57.749Z,5.90
2024-02-12T23:34:34.393Z,5.90
2024-02-12T23:37:02.633Z,6.00
2024-02-12T23:39:30.800Z,5.90
2024-02-12T23:41:58.933Z,5.90
2024-02-12T23:44:30.402Z,5.80
2024-02-12T23:46:59.238Z,5.80
2024-02-12T23:49:28.387Z,5.80
2024-02-12T23:51:56.647Z,5.70
2024-02-12T23:54:24.842Z,5.70
2024-02-12T23:56:53.126Z,5.70
2024-02-12T23:59:21.538Z,5.60
